sensor_id;sensor_type;location;lat;lon;timestamp;noise_LAeq;noise_LA_min;noise_LA_max;noise_LA01;noise_LA95
51665;Laerm;37751;52.408;12.536;2023-04-25T11:14:16;65.01;53.31;81.75;;
51665;Laerm;37751;52.408;12.536;2023-04-25T11:16:45;70.29;56.79;92.88;;
51665;Laerm;37751;52.408;12.536;2023-04-25T11:19:13;64.28;53.71;75.60;;
51665;Laerm;37751;52.408;12.536;2023-04-25T11:21:41;64.32;51.68;71.76;;
51665;Laerm;37751;52.408;12.536;2023-04-25T11:24:09;64.80;54.48;74.52;;
51665;Laerm;37751;52.408;12.536;2023-04-25T11:26:37;66.03;52.46;79.15;;
51665;Laerm;37751;52.408;12.536;2023-04-25T11:29:05;64.52;54.12;87.36;;
51665;Laerm;37751;52.408;12.536;2023-04-25T11:31:33;66.60;55.87;79.90;;
51665;Laerm;37751;52.408;12.536;2023-04-25T11:34:01;64.22;54.01;71.99;;
51665;Laerm;37751;52.408;12.536;2023-04-25T11:36:30;64.07;54.92;74.07;;
51665;Laerm;37751;52.408;12.536;2023-04-25T11:39:20;65.42;55.51;77.85;;
51665;Laerm;37751;52.408;12.536;2023-04-25T11:41:49;69.49;58.60;88.49;;
51665;Laerm;37751;52.408;12.536;2023-04-25T11:44:21;64.83;55.00;75.21;;
51665;Laerm;37751;52.408;12.536;2023-04-25T11:46:49;64.83;56.14;75.12;;
51665;Laerm;37751;52.408;12.536;2023-04-25T11:49:17;66.38;55.88;81.60;;
51665;Laerm;37751;52.408;12.536;2023-04-25T11:51:48;65.45;52.16;80.36;;
51665;Laerm;37751;52.408;12.536;2023-04-25T11:54:17;64.97;53.45;74.61;;
51665;Laerm;37751;52.408;12.536;2023-04-25T11:56:45;64.49;53.39;74.38;;
51665;Laerm;37751;52.408;12.536;2023-04-25T11:59:13;64.91;54.05;75.22;;
51665;Laerm;37751;52.408;12.536;2023-04-25T12:01:49;63.42;54.18;72.35;;
51665;Laerm;37751;52.408;12.536;2023-04-25T12:04:22;65.58;55.26;79.05;;
51665;Laerm;37751;52.408;12.536;2023-04-25T12:06:53;65.49;55.93;76.00;;
51665;Laerm;37751;52.408;12.536;2023-04-25T12:09:32;64.22;52.40;73.05;;
51665;Laerm;37751;52.408;12.536;2023-04-25T12:12:09;65.60;52.40;75.68;;
51665;Laerm;37751;52.408;12.536;2023-04-25T12:14:37;64.20;52.16;75.29;;
51665;Laerm;37751;52.408;12.536;2023-04-25T12:17:05;65.28;52.87;77.90;;
51665;Laerm;37751;52.408;12.536;2023-04-25T12:19:37;62.76;51.70;70.58;;
51665;Laerm;37751;52.408;12.536;2023-04-25T12:22:35;63.91;52.07;72.54;;
51665;Laerm;37751;52.408;12.536;2023-04-25T12:25:04;65.22;54.81;72.91;;
51665;Laerm;37751;52.408;12.536;2023-04-25T12:27:33;64.25;55.76;73.00;;
51665;Laerm;37751;52.408;12.536;2023-04-25T12:30:01;65.44;56.53;73.57;;
51665;Laerm;37751;52.408;12.536;2023-04-25T12:32:29;65.00;55.70;76.91;;
51665;Laerm;37751;52.408;12.536;2023-04-25T12:34:57;66.03;57.18;82.28;;
51665;Laerm;37751;52.408;12.536;2023-04-25T12:37:25;65.17;55.39;80.10;;
51665;Laerm;37751;52.408;12.536;2023-04-25T12:39:53;65.52;54.73;76.93;;
51665;Laerm;37751;52.408;12.536;2023-04-25T12:42:32;65.62;53.13;76.27;;
51665;Laerm;37751;52.408;12.536;2023-04-25T12:45:00;70.87;56.26;87.43;;
51665;Laerm;37751;52.408;12.536;2023-04-25T12:47:34;65.21;53.59;72.42;;
51665;Laerm;37751;52.408;12.536;2023-04-25T12:50:08;65.84;53.17;75.08;;
51665;Laerm;37751;52.408;12.536;2023-04-25T12:52:36;64.77;53.26;74.17;;
51665;Laerm;37751;52.408;12.536;2023-04-25T12:55:05;64.72;54.81;73.34;;
51665;Laerm;37751;52.408;12.536;2023-04-25T12:57:36;65.97;52.13;78.18;;
51665;Laerm;37751;52.408;12.536;2023-04-25T13:00:05;74.66;54.49;96.94;;
51665;Laerm;37751;52.408;12.536;2023-04-25T13:02:36;66.45;57.40;79.38;;
51665;Laerm;37751;52.408;12.536;2023-04-25T13:05:05;65.94;59.60;71.84;;
51665;Laerm;37751;52.408;12.536;2023-04-25T13:07:34;65.68;57.42;75.97;;
51665;Laerm;37751;52.408;12.536;2023-04-25T13:10:03;65.02;57.07;73.26;;
51665;Laerm;37751;52.408;12.536;2023-04-25T13:12:31;66.21;59.51;79.31;;
51665;Laerm;37751;52.408;12.536;2023-04-25T13:14:59;65.44;55.94;75.28;;
51665;Laerm;37751;52.408;12.536;2023-04-25T13:17:27;65.80;58.03;83.77;;
51665;Laerm;37751;52.408;12.536;2023-04-25T13:19:55;63.87;55.44;71.72;;
51665;Laerm;37751;52.408;12.536;2023-04-25T13:22:23;68.63;58.28;84.40;;
51665;Laerm;37751;52.408;12.536;2023-04-25T13:24:53;65.27;56.18;75.63;;
51665;Laerm;37751;52.408;12.536;2023-04-25T13:27:21;65.05;55.43;73.40;;
51665;Laerm;37751;52.408;12.536;2023-04-25T13:29:49;65.17;57.45;73.11;;
51665;Laerm;37751;52.408;12.536;2023-04-25T13:32:17;65.44;57.26;74.22;;
51665;Laerm;37751;52.408;12.536;2023-04-25T13:34:47;67.09;58.51;79.42;;
51665;Laerm;37751;52.408;12.536;2023-04-25T13:37:15;75.67;59.35;91.57;;
51665;Laerm;37751;52.408;12.536;2023-04-25T13:39:43;64.97;57.93;71.30;;
51665;Laerm;37751;52.408;12.536;2023-04-25T13:42:13;64.46;57.73;73.73;;
51665;Laerm;37751;52.408;12.536;2023-04-25T13:44:41;65.44;58.08;81.17;;
51665;Laerm;37751;52.408;12.536;2023-04-25T13:47:08;66.57;56.87;75.71;;
51665;Laerm;37751;52.408;12.536;2023-04-25T13:49:37;65.16;57.55;77.29;;
51665;Laerm;37751;52.408;12.536;2023-04-25T13:52:05;66.12;58.53;74.71;;
51665;Laerm;37751;52.408;12.536;2023-04-25T13:54:33;66.41;59.22;81.49;;
51665;Laerm;37751;52.408;12.536;2023-04-25T13:57:01;65.18;56.37;78.28;;
51665;Laerm;37751;52.408;12.536;2023-04-25T13:59:29;65.85;58.42;76.79;;
51665;Laerm;37751;52.408;12.536;2023-04-25T14:01:57;66.21;58.44;88.02;;
51665;Laerm;37751;52.408;12.536;2023-04-25T14:04:24;64.70;55.58;74.46;;
51665;Laerm;37751;52.408;12.536;2023-04-25T14:06:53;74.46;58.39;94.95;;
51665;Laerm;37751;52.408;12.536;2023-04-25T14:09:21;64.82;56.67;72.69;;
51665;Laerm;37751;52.408;12.536;2023-04-25T14:11:53;69.65;63.34;80.67;;
51665;Laerm;37751;52.408;12.536;2023-04-25T14:14:25;68.07;56.08;88.62;;
51665;Laerm;37751;52.408;12.536;2023-04-25T14:16:54;65.70;57.95;75.28;;
51665;Laerm;37751;52.408;12.536;2023-04-25T14:19:22;66.32;57.46;73.40;;
51665;Laerm;37751;52.408;12.536;2023-04-25T14:21:50;64.11;52.77;73.17;;
51665;Laerm;37751;52.408;12.536;2023-04-25T14:24:18;65.31;55.01;71.98;;
51665;Laerm;37751;52.408;12.536;2023-04-25T14:26:46;64.74;57.18;72.90;;
51665;Laerm;37751;52.408;12.536;2023-04-25T14:29:16;64.65;53.32;79.14;;
51665;Laerm;37751;52.408;12.536;2023-04-25T14:31:44;65.34;57.36;81.66;;
51665;Laerm;37751;52.408;12.536;2023-04-25T14:34:13;64.59;56.29;82.65;;
51665;Laerm;37751;52.408;12.536;2023-04-25T14:36:41;64.73;55.64;74.85;;
51665;Laerm;37751;52.408;12.536;2023-04-25T14:39:09;67.69;57.91;78.55;;
51665;Laerm;37751;52.408;12.536;2023-04-25T14:41:37;64.35;56.65;72.21;;
51665;Laerm;37751;52.408;12.536;2023-04-25T14:44:07;69.43;59.71;88.43;;
51665;Laerm;37751;52.408;12.536;2023-04-25T14:46:36;64.10;56.44;75.89;;
51665;Laerm;37751;52.408;12.536;2023-04-25T14:49:04;70.82;58.90;91.19;;
51665;Laerm;37751;52.408;12.536;2023-04-25T14:51:33;65.94;56.78;75.02;;
51665;Laerm;37751;52.408;12.536;2023-04-25T14:54:00;65.90;55.71;72.49;;
51665;Laerm;37751;52.408;12.536;2023-04-25T14:56:28;64.61;53.54;72.39;;
51665;Laerm;37751;52.408;12.536;2023-04-25T14:58:56;64.53;58.52;71.95;;
51665;Laerm;37751;52.408;12.536;2023-04-25T15:01:24;64.67;54.95;74.80;;
51665;Laerm;37751;52.408;12.536;2023-04-25T15:03:52;64.23;55.19;74.80;;
51665;Laerm;37751;52.408;12.536;2023-04-25T15:06:20;63.68;54.56;73.18;;
51665;Laerm;37751;52.408;12.536;2023-04-25T15:08:48;64.12;52.94;73.66;;
51665;Laerm;37751;52.408;12.536;2023-04-25T15:11:16;64.75;55.71;74.70;;
51665;Laerm;37751;52.408;12.536;2023-04-25T15:13:44;65.42;57.78;83.74;;
51665;Laerm;37751;52.408;12.536;2023-04-25T15:16:12;64.62;56.37;72.44;;
51665;Laerm;37751;52.408;12.536;2023-04-25T15:18:40;65.40;55.95;80.06;;
51665;Laerm;37751;52.408;12.536;2023-04-25T15:21:08;64.60;53.76;73.86;;
51665;Laerm;37751;52.408;12.536;2023-04-25T15:23:36;65.31;57.94;76.08;;
51665;Laerm;37751;52.408;12.536;2023-04-25T15:26:05;66.72;49.76;86.71;;
51665;Laerm;37751;52.408;12.536;2023-04-25T15:28:33;65.38;48.36;75.93;;
51665;Laerm;37751;52.408;12.536;2023-04-25T15:31:01;63.70;50.28;72.74;;
51665;Laerm;37751;52.408;12.536;2023-04-25T15:33:29;75.50;53.96;93.72;;
51665;Laerm;37751;52.408;12.536;2023-04-25T15:35:57;65.46;54.73;76.34;;
51665;Laerm;37751;52.408;12.536;2023-04-25T15:38:25;64.81;49.23;78.75;;
51665;Laerm;37751;52.408;12.536;2023-04-25T15:40:53;65.14;52.13;77.31;;
51665;Laerm;37751;52.408;12.536;2023-04-25T15:43:21;65.03;53.54;73.04;;
51665;Laerm;37751;52.408;12.536;2023-04-25T15:45:49;64.37;55.01;74.65;;
51665;Laerm;37751;52.408;12.536;2023-04-25T15:48:16;63.68;55.59;73.66;;
51665;Laerm;37751;52.408;12.536;2023-04-25T15:50:44;63.88;52.55;86.07;;
51665;Laerm;37751;52.408;12.536;2023-04-25T15:53:15;65.61;54.66;73.50;;
51665;Laerm;37751;52.408;12.536;2023-04-25T15:55:43;64.84;52.82;74.99;;
51665;Laerm;37751;52.408;12.536;2023-04-25T15:58:13;65.57;52.17;78.63;;
51665;Laerm;37751;52.408;12.536;2023-04-25T16:00:40;63.26;54.08;77.76;;
51665;Laerm;37751;52.408;12.536;2023-04-25T16:03:09;64.42;55.55;72.37;;
51665;Laerm;37751;52.408;12.536;2023-04-25T16:05:37;65.18;49.02;75.72;;
51665;Laerm;37751;52.408;12.536;2023-04-25T16:08:07;64.68;48.84;74.85;;
51665;Laerm;37751;52.408;12.536;2023-04-25T16:10:35;64.68;52.27;75.43;;
51665;Laerm;37751;52.408;12.536;2023-04-25T16:13:03;64.28;52.84;73.09;;
51665;Laerm;37751;52.408;12.536;2023-04-25T16:15:31;65.32;53.45;76.28;;
51665;Laerm;37751;52.408;12.536;2023-04-25T16:18:02;65.06;55.33;73.32;;
51665;Laerm;37751;52.408;12.536;2023-04-25T16:20:31;64.48;52.85;74.52;;
51665;Laerm;37751;52.408;12.536;2023-04-25T16:22:59;64.19;52.26;72.51;;
51665;Laerm;37751;52.408;12.536;2023-04-25T16:25:27;62.79;51.63;76.21;;
51665;Laerm;37751;52.408;12.536;2023-04-25T16:27:55;65.34;51.47;76.94;;
51665;Laerm;37751;52.408;12.536;2023-04-25T16:30:23;64.10;53.17;73.65;;
51665;Laerm;37751;52.408;12.536;2023-04-25T16:32:51;62.70;53.48;73.45;;
51665;Laerm;37751;52.408;12.536;2023-04-25T16:35:19;62.83;46.66;72.90;;
51665;Laerm;37751;52.408;12.536;2023-04-25T16:37:47;62.88;49.08;71.72;;
51665;Laerm;37751;52.408;12.536;2023-04-25T16:40:14;62.52;46.01;72.32;;
51665;Laerm;37751;52.408;12.536;2023-04-25T16:42:42;63.80;50.29;74.54;;
51665;Laerm;37751;52.408;12.536;2023-04-25T16:45:12;62.20;46.72;72.36;;
51665;Laerm;37751;52.408;12.536;2023-04-25T16:47:39;61.80;47.69;72.91;;
51665;Laerm;37751;52.408;12.536;2023-04-25T16:50:08;63.12;48.52;74.38;;
51665;Laerm;37751;52.408;12.536;2023-04-25T16:52:35;63.14;49.89;73.74;;
51665;Laerm;37751;52.408;12.536;2023-04-25T16:55:05;64.10;49.03;74.16;;
51665;Laerm;37751;52.408;12.536;2023-04-25T16:57:35;62.24;48.54;73.45;;
51665;Laerm;37751;52.408;12.536;2023-04-25T17:00:07;64.65;46.51;83.22;;
51665;Laerm;37751;52.408;12.536;2023-04-25T17:02:37;62.56;49.45;74.29;;
51665;Laerm;37751;52.408;12.536;2023-04-25T17:05:13;64.24;48.77;78.40;;
51665;Laerm;37751;52.408;12.536;2023-04-25T17:07:44;61.60;47.91;74.18;;
51665;Laerm;37751;52.408;12.536;2023-04-25T17:10:12;62.30;51.94;73.32;;
51665;Laerm;37751;52.408;12.536;2023-04-25T17:12:43;63.50;51.75;76.93;;
51665;Laerm;37751;52.408;12.536;2023-04-25T17:15:11;64.02;47.89;74.45;;
51665;Laerm;37751;52.408;12.536;2023-04-25T17:17:40;61.54;48.04;72.01;;
51665;Laerm;37751;52.408;12.536;2023-04-25T17:20:09;63.34;47.71;73.32;;
51665;Laerm;37751;52.408;12.536;2023-04-25T17:22:37;63.61;47.40;75.63;;
51665;Laerm;37751;52.408;12.536;2023-04-25T17:25:07;61.65;47.30;72.05;;
51665;Laerm;37751;52.408;12.536;2023-04-25T17:27:38;62.05;47.76;69.78;;
51665;Laerm;37751;52.408;12.536;2023-04-25T17:30:08;61.72;49.24;72.10;;
51665;Laerm;37751;52.408;12.536;2023-04-25T17:32:35;61.61;48.95;71.65;;
51665;Laerm;37751;52.408;12.536;2023-04-25T17:35:04;64.08;49.70;74.67;;
51665;Laerm;37751;52.408;12.536;2023-04-25T17:37:33;62.31;46.80;73.84;;
51665;Laerm;37751;52.408;12.536;2023-04-25T17:40:01;62.54;49.37;75.79;;
51665;Laerm;37751;52.408;12.536;2023-04-25T17:42:30;60.62;48.28;70.93;;
51665;Laerm;37751;52.408;12.536;2023-04-25T17:44:58;61.68;47.33;76.41;;
51665;Laerm;37751;52.408;12.536;2023-04-25T17:47:25;61.39;45.51;71.72;;
51665;Laerm;37751;52.408;12.536;2023-04-25T17:49:53;60.23;48.90;71.39;;
51665;Laerm;37751;52.408;12.536;2023-04-25T17:52:23;62.10;48.72;74.48;;
51665;Laerm;37751;52.408;12.536;2023-04-25T17:54:52;59.51;47.38;69.96;;
51665;Laerm;37751;52.408;12.536;2023-04-25T17:57:20;61.25;48.65;71.71;;
51665;Laerm;37751;52.408;12.536;2023-04-25T17:59:52;57.91;45.80;71.46;;
51665;Laerm;37751;52.408;12.536;2023-04-25T18:02:22;59.32;47.23;70.55;;
51665;Laerm;37751;52.408;12.536;2023-04-25T18:04:50;60.40;47.62;71.03;;
51665;Laerm;37751;52.408;12.536;2023-04-25T18:07:19;60.29;47.62;71.72;;
51665;Laerm;37751;52.408;12.536;2023-04-25T18:09:47;61.69;48.57;75.02;;
51665;Laerm;37751;52.408;12.536;2023-04-25T18:12:15;59.11;46.86;69.75;;
51665;Laerm;37751;52.408;12.536;2023-04-25T18:14:44;60.36;45.80;71.02;;
51665;Laerm;37751;52.408;12.536;2023-04-25T18:17:16;62.00;47.91;74.07;;
51665;Laerm;37751;52.408;12.536;2023-04-25T18:19:47;61.23;47.35;73.11;;
51665;Laerm;37751;52.408;12.536;2023-04-25T18:22:16;58.32;44.58;70.20;;
51665;Laerm;37751;52.408;12.536;2023-04-25T18:24:44;61.76;47.10;74.38;;
51665;Laerm;37751;52.408;12.536;2023-04-25T18:27:13;60.80;47.50;74.27;;
51665;Laerm;37751;52.408;12.536;2023-04-25T18:29:40;76.54;48.70;103.55;;
51665;Laerm;37751;52.408;12.536;2023-04-25T18:32:10;60.78;48.68;71.55;;
51665;Laerm;37751;52.408;12.536;2023-04-25T18:34:38;60.37;46.27;71.90;;
51665;Laerm;37751;52.408;12.536;2023-04-25T18:37:12;63.07;48.67;74.45;;
51665;Laerm;37751;52.408;12.536;2023-04-25T18:39:40;61.38;47.97;73.99;;
51665;Laerm;37751;52.408;12.536;2023-04-25T18:42:08;68.15;48.83;92.27;;
51665;Laerm;37751;52.408;12.536;2023-04-25T18:44:36;60.72;46.48;73.55;;
51665;Laerm;37751;52.408;12.536;2023-04-25T18:47:08;61.62;45.23;74.37;;
51665;Laerm;37751;52.408;12.536;2023-04-25T18:49:37;62.46;50.80;79.04;;
51665;Laerm;37751;52.408;12.536;2023-04-25T18:52:06;58.71;41.89;74.51;;
51665;Laerm;37751;52.408;12.536;2023-04-25T18:54:39;60.93;47.64;71.50;;
51665;Laerm;37751;52.408;12.536;2023-04-25T18:57:07;62.45;44.34;75.40;;
51665;Laerm;37751;52.408;12.536;2023-04-25T18:59:36;62.51;47.30;74.55;;
51665;Laerm;37751;52.408;12.536;2023-04-25T19:02:03;62.35;47.62;74.64;;
51665;Laerm;37751;52.408;12.536;2023-04-25T19:04:32;62.51;47.07;78.51;;
51665;Laerm;37751;52.408;12.536;2023-04-25T19:07:00;59.19;45.65;72.69;;
51665;Laerm;37751;52.408;12.536;2023-04-25T19:09:28;57.84;45.31;69.99;;
51665;Laerm;37751;52.408;12.536;2023-04-25T19:11:55;59.83;47.07;73.05;;
51665;Laerm;37751;52.408;12.536;2023-04-25T19:14:23;57.10;44.58;67.24;;
51665;Laerm;37751;52.408;12.536;2023-04-25T19:16:52;62.54;46.11;76.15;;
51665;Laerm;37751;52.408;12.536;2023-04-25T19:19:20;59.92;48.74;70.94;;
51665;Laerm;37751;52.408;12.536;2023-04-25T19:21:48;63.05;45.58;86.86;;
51665;Laerm;37751;52.408;12.536;2023-04-25T19:24:17;61.25;46.75;72.76;;
51665;Laerm;37751;52.408;12.536;2023-04-25T19:26:45;61.33;46.30;78.10;;
51665;Laerm;37751;52.408;12.536;2023-04-25T19:29:13;59.88;47.30;70.41;;
51665;Laerm;37751;52.408;12.536;2023-04-25T19:31:43;60.50;46.91;70.76;;
51665;Laerm;37751;52.408;12.536;2023-04-25T19:34:12;57.32;45.83;70.52;;
51665;Laerm;37751;52.408;12.536;2023-04-25T19:36:41;58.86;45.76;70.79;;
51665;Laerm;37751;52.408;12.536;2023-04-25T19:39:09;57.69;44.04;71.69;;
51665;Laerm;37751;52.408;12.536;2023-04-25T19:41:37;57.24;43.88;65.89;;
51665;Laerm;37751;52.408;12.536;2023-04-25T19:44:07;58.82;46.72;70.94;;
51665;Laerm;37751;52.408;12.536;2023-04-25T19:46:35;58.12;47.18;68.86;;
51665;Laerm;37751;52.408;12.536;2023-04-25T19:49:04;59.78;46.20;73.24;;
51665;Laerm;37751;52.408;12.536;2023-04-25T19:51:35;59.59;43.90;75.22;;
51665;Laerm;37751;52.408;12.536;2023-04-25T19:54:04;59.42;48.04;71.84;;
51665;Laerm;37751;52.408;12.536;2023-04-25T19:56:31;59.95;45.65;72.08;;
51665;Laerm;37751;52.408;12.536;2023-04-25T19:58:59;67.53;48.80;84.10;;
51665;Laerm;37751;52.408;12.536;2023-04-25T20:01:27;55.80;43.16;68.61;;
51665;Laerm;37751;52.408;12.536;2023-04-25T20:03:55;59.99;44.49;73.07;;
51665;Laerm;37751;52.408;12.536;2023-04-25T20:06:23;61.61;45.43;80.51;;
51665;Laerm;37751;52.408;12.536;2023-04-25T20:08:54;58.43;47.45;69.02;;
51665;Laerm;37751;52.408;12.536;2023-04-25T20:11:22;57.14;45.35;67.74;;
51665;Laerm;37751;52.408;12.536;2023-04-25T20:13:50;57.13;45.35;70.45;;
51665;Laerm;37751;52.408;12.536;2023-04-25T20:16:18;57.04;44.81;70.11;;
51665;Laerm;37751;52.408;12.536;2023-04-25T20:18:47;60.46;46.75;71.92;;
51665;Laerm;37751;52.408;12.536;2023-04-25T20:21:15;59.37;45.23;74.98;;
51665;Laerm;37751;52.408;12.536;2023-04-25T20:23:44;60.14;47.71;71.65;;
51665;Laerm;37751;52.408;12.536;2023-04-25T20:26:12;57.75;44.29;76.07;;
51665;Laerm;37751;52.408;12.536;2023-04-25T20:28:40;56.26;43.35;71.04;;
51665;Laerm;37751;52.408;12.536;2023-04-25T20:31:11;58.17;45.11;73.28;;
51665;Laerm;37751;52.408;12.536;2023-04-25T20:33:39;58.66;44.49;70.84;;
51665;Laerm;37751;52.408;12.536;2023-04-25T20:36:10;57.76;44.19;69.60;;
51665;Laerm;37751;52.408;12.536;2023-04-25T20:38:38;58.32;44.90;72.21;;
51665;Laerm;37751;52.408;12.536;2023-04-25T20:41:05;56.35;43.03;72.70;;
51665;Laerm;37751;52.408;12.536;2023-04-25T20:43:35;50.87;41.80;65.81;;
51665;Laerm;37751;52.408;12.536;2023-04-25T20:46:09;56.57;43.47;69.91;;
51665;Laerm;37751;52.408;12.536;2023-04-25T20:48:37;53.73;42.38;69.87;;
51665;Laerm;37751;52.408;12.536;2023-04-25T20:51:04;59.55;43.88;76.34;;
51665;Laerm;37751;52.408;12.536;2023-04-25T20:53:33;54.29;44.19;68.47;;
51665;Laerm;37751;52.408;12.536;2023-04-25T20:56:01;56.05;42.48;70.05;;
51665;Laerm;37751;52.408;12.536;2023-04-25T20:58:30;54.89;40.81;68.05;;
51665;Laerm;37751;52.408;12.536;2023-04-25T21:00:58;55.28;44.04;67.21;;
51665;Laerm;37751;52.408;12.536;2023-04-25T21:03:28;56.58;42.22;69.94;;
51665;Laerm;37751;52.408;12.536;2023-04-25T21:05:57;58.83;42.22;76.56;;
51665;Laerm;37751;52.408;12.536;2023-04-25T21:08:24;58.42;44.14;71.64;;
51665;Laerm;37751;52.408;12.536;2023-04-25T21:10:52;54.89;44.34;68.86;;
51665;Laerm;37751;52.408;12.536;2023-04-25T21:13:29;57.10;43.03;72.36;;
51665;Laerm;37751;52.408;12.536;2023-04-25T22:12:16;51.29;39.95;67.81;;
51665;Laerm;37751;52.408;12.536;2023-04-25T22:14:43;51.58;41.33;69.10;;
51665;Laerm;37751;52.408;12.536;2023-04-25T22:17:11;50.79;41.03;63.08;;
51665;Laerm;37751;52.408;12.536;2023-04-25T22:19:39;48.25;39.95;66.58;;
51665;Laerm;37751;52.408;12.536;2023-04-25T22:31:38;54.25;40.70;76.45;;
51665;Laerm;37751;52.408;12.536;2023-04-25T22:34:06;54.47;41.89;70.92;;
51665;Laerm;37751;52.408;12.536;2023-04-25T22:36:34;57.40;44.49;74.17;;
51665;Laerm;37751;52.408;12.536;2023-04-25T22:39:02;47.65;40.46;64.47;;
51665;Laerm;37751;52.408;12.536;2023-04-25T22:41:29;53.79;40.08;69.67;;
51665;Laerm;37751;52.408;12.536;2023-04-25T22:43:57;52.62;39.95;68.08;;
51665;Laerm;37751;52.408;12.536;2023-04-25T22:46:24;52.48;41.33;68.47;;
51665;Laerm;37751;52.408;12.536;2023-04-25T22:48:52;48.43;40.81;66.26;;
51665;Laerm;37751;52.408;12.536;2023-04-25T22:51:20;56.28;42.30;70.86;;
51665;Laerm;37751;52.408;12.536;2023-04-25T22:53:48;54.27;40.46;70.15;;
51665;Laerm;37751;52.408;12.536;2023-04-25T22:56:16;51.16;41.89;67.41;;
51665;Laerm;37751;52.408;12.536;2023-04-25T22:58:43;49.14;40.21;66.00;;
51665;Laerm;37751;52.408;12.536;2023-04-25T23:01:11;50.69;41.80;60.58;;
51665;Laerm;37751;52.408;12.536;2023-04-25T23:03:39;50.99;39.37;67.80;;
51665;Laerm;37751;52.408;12.536;2023-04-25T23:06:07;52.01;41.89;67.79;;
51665;Laerm;37751;52.408;12.536;2023-04-25T23:08:35;55.10;41.03;68.70;;
51665;Laerm;37751;52.408;12.536;2023-04-25T23:11:06;46.96;40.35;65.34;;
51665;Laerm;37751;52.408;12.536;2023-04-25T23:13:34;55.88;40.57;72.13;;
51665;Laerm;37751;52.408;12.536;2023-04-25T23:16:09;51.36;39.52;68.82;;
51665;Laerm;37751;52.408;12.536;2023-04-25T23:18:38;47.55;41.89;63.48;;
51665;Laerm;37751;52.408;12.536;2023-04-25T23:21:06;51.50;39.21;69.12;;
51665;Laerm;37751;52.408;12.536;2023-04-25T23:23:38;52.39;41.43;74.84;;
51665;Laerm;37751;52.408;12.536;2023-04-25T23:26:10;49.39;40.58;67.04;;
51665;Laerm;37751;52.408;12.536;2023-04-25T23:28:38;56.16;41.23;75.62;;
51665;Laerm;37751;52.408;12.536;2023-04-25T23:31:15;46.86;39.67;64.34;;
51665;Laerm;37751;52.408;12.536;2023-04-25T23:33:43;49.20;40.92;67.84;;
51665;Laerm;37751;52.408;12.536;2023-04-25T23:36:19;48.64;41.33;65.04;;
51665;Laerm;37751;52.408;12.536;2023-04-25T23:38:47;46.54;39.05;61.80;;
51665;Laerm;37751;52.408;12.536;2023-04-25T23:41:17;49.66;42.53;63.11;;
51665;Laerm;37751;52.408;12.536;2023-04-25T23:43:44;50.98;41.33;65.46;;
51665;Laerm;37751;52.408;12.536;2023-04-25T23:46:12;49.53;40.46;66.92;;
51665;Laerm;37751;52.408;12.536;2023-04-25T23:48:41;56.56;40.58;74.73;;
51665;Laerm;37751;52.408;12.536;2023-04-25T23:51:08;53.73;38.12;67.94;;
51665;Laerm;37751;52.408;12.536;2023-04-25T23:53:36;48.30;42.14;64.40;;
51665;Laerm;37751;52.408;12.536;2023-04-25T23:56:04;49.89;39.05;66.51;;
51665;Laerm;37751;52.408;12.536;2023-04-25T23:58:31;45.82;40.34;60.69;;
